createdAt,value
2023-03-02T00:00:00.000Z,69.67
2023-03-02T00:15:00.000Z,68.36
2023-03-02T00:30:00.000Z,67.73
2023-03-02T00:45:00.000Z,67.44
2023-03-02T01:00:00.000Z,68.85
2023-03-02T01:15:00.000Z,69.59
2023-03-02T01:30:00.000Z,69.15
2023-03-02T01:45:00.000Z,68.73
2023-03-02T02:00:00.000Z,70.01
2023-03-02T02:15:00.000Z,70.25
2023-03-02T02:30:00.000Z,66.46
2023-03-02T02:45:00.000Z,69.99
2023-03-02T03:00:00.000Z,67.31
2023-03-02T03:15:00.000Z,65.92
2023-03-02T03:30:00.000Z,65.62
2023-03-02T03:45:00.000Z,64.08
2023-03-02T04:00:00.000Z,59.34
2023-03-02T04:15:00.000Z,58.13
2023-03-02T04:30:00.000Z,60.09
2023-03-02T04:45:00.000Z,59.87
2023-03-02T05:00:00.000Z,59.92
2023-03-02T05:15:00.000Z,61.48
2023-03-02T05:30:00.000Z,64.24
2023-03-02T05:45:00.000Z,64.11
2023-03-02T06:00:00.000Z,64.94
2023-03-02T06:15:00.000Z,67.48
2023-03-02T06:30:00.000Z,62.39
2023-03-02T06:45:00.000Z,60.95
2023-03-02T07:00:00.000Z,63.72
2023-03-02T07:15:00.000Z,52.2
2023-03-02T07:30:00.000Z,41.72
2023-03-02T07:45:00.000Z,41.27
2023-03-02T08:00:00.000Z,41.18
2023-03-02T08:15:00.000Z,43.27
2023-03-02T08:30:00.000Z,41.44
2023-03-02T08:45:00.000Z,42.99
2023-03-02T09:00:00.000Z,40.36
2023-03-02T09:15:00.000Z,40.61
2023-03-02T09:30:00.000Z,39.48
2023-03-02T09:45:00.000Z,37.35
2023-03-02T10:00:00.000Z,35.67
2023-03-02T10:15:00.000Z,34.78
2023-03-02T10:30:00.000Z,34.47
2023-03-02T10:45:00.000Z,33.34
2023-03-02T11:00:00.000Z,33
2023-03-02T11:15:00.000Z,34.88
2023-03-02T11:30:00.000Z,33.16
2023-03-02T11:45:00.000Z,32.64
2023-03-02T12:00:00.000Z,31.99
2023-03-02T12:15:00.000Z,32.22
2023-03-02T12:30:00.000Z,33.14
2023-03-02T12:45:00.000Z,34.19
2023-03-02T13:00:00.000Z,34.26
2023-03-02T13:15:00.000Z,33.73
2023-03-02T13:30:00.000Z,32.25
2023-03-02T13:45:00.000Z,32.42
2023-03-02T14:00:00.000Z,33.92
2023-03-02T14:15:00.000Z,35.74
2023-03-02T14:30:00.000Z,36.04
2023-03-02T14:45:00.000Z,36.46
2023-03-02T15:00:00.000Z,36.87
2023-03-02T15:15:00.000Z,37.38
2023-03-02T15:30:00.000Z,38.71
2023-03-02T15:45:00.000Z,37.68
2023-03-02T16:00:00.000Z,37.19
2023-03-02T16:15:00.000Z,37.24
2023-03-02T16:30:00.000Z,38.17
2023-03-02T16:45:00.000Z,38.86
2023-03-02T17:00:00.000Z,37.96
2023-03-02T17:15:00.000Z,38.65
2023-03-02T17:30:00.000Z,41.45
2023-03-02T17:45:00.000Z,41.06
2023-03-02T18:00:00.000Z,42.78
2023-03-02T18:15:00.000Z,44.39
2023-03-02T18:30:00.000Z,45.04
2023-03-02T18:45:00.000Z,51.46
2023-03-02T19:00:00.000Z,55.14
2023-03-02T19:15:00.000Z,50.32
2023-03-02T19:30:00.000Z,48.79
2023-03-02T19:45:00.000Z,48.49
2023-03-02T20:00:00.000Z,50.09
2023-03-02T20:15:00.000Z,52.74
2023-03-02T20:30:00.000Z,50.98
2023-03-02T20:45:00.000Z,54.66
2023-03-02T21:00:00.000Z,55.95
2023-03-02T21:15:00.000Z,64.02
2023-03-02T21:30:00.000Z,60.21
2023-03-02T21:45:00.000Z,59.76
2023-03-02T22:00:00.000Z,62.67
2023-03-02T22:15:00.000Z,63.99
2023-03-02T22:30:00.000Z,64.12
2023-03-02T22:45:00.000Z,67.64
2023-03-02T23:00:00.000Z,67.69
2023-03-02T23:15:00.000Z,68.93
2023-03-02T23:30:00.000Z,70.33
2023-03-02T23:45:00.000Z,68.78
